createdAt,value
2023-05-22T00:00:21.076Z,71.23
2023-05-22T00:01:26.585Z,71.79
2023-05-22T00:02:28.864Z,71.68
2023-05-22T00:03:31.417Z,72.49
2023-05-22T00:04:33.904Z,72.50
2023-05-22T00:05:38.960Z,73.01
2023-05-22T00:06:42.770Z,72.49
2023-05-22T00:07:46.190Z,72.45
2023-05-22T00:08:48.434Z,73.29
2023-05-22T00:09:50.617Z,71.48
2023-05-22T00:10:53.033Z,70.85
2023-05-22T00:11:55.272Z,69.47
2023-05-22T00:12:57.398Z,69.40
2023-05-22T00:13:59.520Z,69.20
2023-05-22T00:15:02.139Z,67.76
2023-05-22T00:16:04.464Z,67.83
2023-05-22T00:17:06.700Z,69.60
2023-05-22T00:18:09.041Z,69.65
2023-05-22T00:19:13.333Z,69.78
2023-05-22T00:20:15.968Z,69.56
2023-05-22T00:21:18.624Z,69.47
2023-05-22T00:22:21.118Z,70.90
2023-05-22T00:23:23.731Z,70.97
2023-05-22T00:24:25.948Z,71.15
2023-05-22T00:25:28.106Z,70.08
2023-05-22T00:26:30.250Z,70.14
2023-05-22T00:27:33.208Z,70.13
2023-05-22T00:28:35.381Z,69.94
2023-05-22T00:29:37.718Z,70.22
2023-05-22T00:30:40.193Z,70.51
2023-05-22T00:31:42.479Z,70.81
2023-05-22T00:32:44.752Z,71.06
2023-05-22T00:33:46.900Z,71.92
2023-05-22T00:34:49.391Z,71.43
2023-05-22T00:35:51.729Z,70.99
2023-05-22T00:36:53.865Z,72.11
2023-05-22T00:37:56.027Z,71.96
2023-05-22T00:38:58.199Z,72.72
2023-05-22T00:40:00.374Z,72.45
2023-05-22T00:41:04.288Z,71.19
2023-05-22T00:42:06.560Z,70.27
2023-05-22T00:43:09.381Z,70.28
2023-05-22T00:44:12.080Z,71.62
2023-05-22T00:45:15.037Z,71.42
2023-05-22T00:46:21.584Z,71.83
2023-05-22T00:47:24.088Z,70.74
2023-05-22T00:48:26.319Z,70.72
2023-05-22T00:49:28.497Z,71.04
2023-05-22T00:50:30.726Z,71.20
2023-05-22T00:51:33.058Z,71.08
2023-05-22T00:52:38.355Z,71.06
2023-05-22T00:53:40.660Z,71.78
2023-05-22T00:54:43.372Z,71.81
2023-05-22T00:55:45.603Z,70.44
2023-05-22T00:56:48.825Z,71.38
2023-05-22T00:57:51.967Z,70.34
2023-05-22T00:58:54.186Z,70.08
2023-05-22T00:59:56.384Z,70.61
2023-05-22T01:00:59.076Z,70.60
2023-05-22T01:02:01.724Z,71.28
2023-05-22T01:03:08.019Z,72.39
2023-05-22T01:04:12.064Z,71.90
2023-05-22T01:05:18.423Z,71.73
2023-05-22T01:06:24.387Z,71.92
2023-05-22T01:07:26.576Z,72.76
2023-05-22T01:08:28.821Z,73.27
2023-05-22T01:09:31.238Z,73.26
2023-05-22T01:10:34.487Z,73.41
2023-05-22T01:11:39.094Z,72.33
2023-05-22T01:12:48.958Z,71.65
2023-05-22T01:13:57.563Z,71.62
2023-05-22T01:15:36.864Z,71.16
2023-05-22T01:17:02.436Z,71.08
2023-05-22T01:18:26.375Z,71.64
2023-05-22T01:20:01.686Z,72.32
2023-05-22T01:21:16.131Z,72.57
2023-05-22T01:22:34.061Z,73.22
2023-05-22T01:24:13.942Z,73.05
2023-05-22T01:25:47.591Z,72.04
2023-05-22T01:27:16.176Z,72.82
2023-05-22T01:29:03.731Z,74.31
2023-05-22T01:30:18.255Z,71.42
2023-05-22T01:31:25.048Z,70.64
2023-05-22T01:32:29.035Z,71.00
2023-05-22T01:33:34.100Z,70.14
2023-05-22T01:34:38.416Z,70.15
2023-05-22T01:35:41.861Z,70.57
2023-05-22T01:36:46.240Z,71.11
2023-05-22T01:37:48.588Z,71.10
2023-05-22T01:38:52.851Z,72.42
2023-05-22T01:39:56.226Z,72.94
2023-05-22T01:40:58.407Z,72.31
2023-05-22T01:42:00.664Z,72.68
2023-05-22T01:43:02.877Z,72.26
2023-05-22T01:44:05.096Z,72.21
2023-05-22T01:45:10.058Z,72.49
2023-05-22T01:46:12.270Z,72.89
2023-05-22T01:47:15.093Z,73.47
2023-05-22T01:48:17.244Z,73.15
2023-05-22T01:49:19.519Z,72.40
2023-05-22T01:50:21.686Z,72.21
2023-05-22T01:51:29.538Z,72.37
2023-05-22T01:52:43.789Z,72.55
2023-05-22T01:54:20.168Z,72.87
2023-05-22T01:55:35.266Z,72.43
2023-05-22T01:56:43.432Z,72.81
2023-05-22T01:58:10.993Z,72.81
2023-05-22T01:59:19.760Z,72.07
2023-05-22T02:00:22.696Z,72.84
2023-05-22T02:01:27.475Z,73.14
2023-05-22T02:02:30.359Z,72.61
2023-05-22T02:03:33.932Z,73.06
2023-05-22T02:04:42.969Z,73.41
2023-05-22T02:05:45.945Z,73.37
2023-05-22T02:06:48.922Z,73.33
2023-05-22T02:07:51.850Z,73.11
2023-05-22T02:08:55.136Z,73.10
2023-05-22T02:09:57.945Z,72.74
2023-05-22T02:11:01.026Z,72.41
2023-05-22T02:12:03.473Z,71.91
2023-05-22T02:13:05.871Z,71.72
2023-05-22T02:14:09.292Z,71.69
2023-05-22T02:15:11.535Z,72.67
2023-05-22T02:16:14.187Z,72.10
2023-05-22T02:17:18.218Z,71.82
2023-05-22T02:18:20.801Z,72.53
2023-05-22T02:19:22.945Z,72.85
2023-05-22T02:20:25.164Z,72.82
2023-05-22T02:21:27.318Z,72.70
2023-05-22T02:22:29.462Z,73.32
2023-05-22T02:23:31.632Z,73.05
2023-05-22T02:24:36.672Z,73.06
2023-05-22T02:25:38.846Z,73.90
2023-05-22T02:26:42.472Z,73.85
2023-05-22T02:27:46.014Z,73.99
2023-05-22T02:28:48.375Z,73.81
2023-05-22T02:29:50.693Z,73.65
2023-05-22T02:30:53.017Z,73.04
2023-05-22T02:31:55.373Z,73.68
2023-05-22T02:33:00.315Z,73.80
2023-05-22T02:34:05.387Z,73.05
2023-05-22T02:35:08.212Z,72.54
2023-05-22T02:36:11.147Z,72.28
2023-05-22T02:37:15.817Z,72.00
2023-05-22T02:38:17.878Z,71.89
2023-05-22T02:39:19.982Z,71.70
2023-05-22T02:40:22.096Z,71.70
2023-05-22T02:41:24.304Z,71.30
2023-05-22T02:42:26.670Z,71.41
2023-05-22T02:43:28.862Z,71.29
2023-05-22T02:44:31.021Z,71.60
2023-05-22T02:45:33.190Z,71.57
2023-05-22T02:46:35.588Z,71.58
2023-05-22T02:47:37.830Z,71.90
2023-05-22T02:48:40.087Z,72.12
2023-05-22T02:49:42.247Z,72.04
2023-05-22T02:50:44.414Z,72.10
2023-05-22T02:51:47.988Z,72.32
2023-05-22T02:52:50.613Z,72.29
2023-05-22T02:53:53.236Z,72.44
2023-05-22T02:54:55.354Z,72.49
2023-05-22T02:55:58.974Z,72.37
2023-05-22T02:57:01.237Z,73.02
2023-05-22T02:58:03.557Z,73.60
2023-05-22T02:59:05.824Z,73.30
2023-05-22T03:00:11.640Z,73.07
2023-05-22T03:01:14.007Z,73.83
2023-05-22T03:02:16.631Z,73.46
2023-05-22T03:03:19.077Z,73.95
2023-05-22T03:04:21.498Z,74.39
2023-05-22T03:05:23.645Z,74.15
2023-05-22T03:06:25.793Z,73.88
2023-05-22T03:07:29.721Z,74.31
2023-05-22T03:08:32.145Z,74.56
2023-05-22T03:09:34.356Z,74.17
2023-05-22T03:10:36.593Z,74.07
2023-05-22T03:11:38.995Z,74.07
2023-05-22T03:12:41.218Z,73.94
2023-05-22T03:13:43.442Z,73.85
2023-05-22T03:14:46.579Z,73.72
2023-05-22T03:15:48.749Z,73.83
2023-05-22T03:16:50.979Z,73.82
2023-05-22T03:17:53.221Z,73.71
2023-05-22T03:19:11.526Z,73.45
2023-05-22T03:20:17.118Z,73.22
2023-05-22T03:21:19.421Z,73.49
2023-05-22T03:22:21.636Z,73.34
2023-05-22T03:23:25.239Z,73.82
2023-05-22T03:24:27.816Z,73.50
2023-05-22T03:25:29.980Z,73.72
2023-05-22T03:26:32.154Z,73.59
2023-05-22T03:27:34.260Z,73.86
2023-05-22T03:28:36.617Z,74.02
2023-05-22T03:29:38.799Z,74.41
2023-05-22T03:30:41.709Z,74.83
2023-05-22T03:31:44.155Z,75.00
2023-05-22T03:32:46.393Z,75.36
2023-05-22T03:33:48.877Z,74.62
2023-05-22T03:34:51.135Z,74.45
2023-05-22T03:35:53.395Z,74.58
2023-05-22T03:36:57.952Z,74.29
2023-05-22T03:38:00.008Z,74.11
2023-05-22T03:39:03.262Z,74.17
2023-05-22T03:40:06.092Z,74.20
2023-05-22T03:41:08.294Z,74.01
2023-05-22T03:42:10.538Z,74.72
2023-05-22T03:43:12.678Z,74.48
2023-05-22T03:44:14.826Z,74.24
2023-05-22T03:45:17.000Z,74.65
2023-05-22T03:46:19.349Z,74.18
2023-05-22T03:47:21.577Z,74.27
2023-05-22T03:48:23.766Z,74.31
2023-05-22T03:49:25.886Z,74.65
2023-05-22T03:50:28.006Z,74.57
2023-05-22T03:51:31.582Z,74.74
2023-05-22T03:52:33.849Z,75.07
2023-05-22T03:53:35.973Z,75.04
2023-05-22T03:54:38.132Z,74.23
2023-05-22T03:55:40.458Z,74.21
2023-05-22T03:56:43.454Z,73.91
2023-05-22T03:57:45.594Z,74.30
2023-05-22T03:58:47.794Z,73.40
2023-05-22T03:59:49.996Z,73.09
2023-05-22T04:00:55.699Z,72.35
2023-05-22T04:01:58.187Z,72.32
2023-05-22T04:03:00.765Z,72.03
2023-05-22T04:04:05.584Z,72.18
2023-05-22T04:05:09.595Z,71.83
2023-05-22T04:06:13.833Z,71.55
2023-05-22T04:07:18.639Z,71.23
2023-05-22T04:08:20.842Z,71.13
2023-05-22T04:09:22.951Z,70.59
2023-05-22T04:10:25.195Z,70.50
2023-05-22T04:11:30.510Z,70.93
2023-05-22T04:12:32.900Z,70.56
2023-05-22T04:13:35.194Z,70.70
2023-05-22T04:14:37.379Z,70.59
2023-05-22T04:15:43.007Z,70.13
2023-05-22T04:16:45.167Z,70.03
2023-05-22T04:17:47.465Z,69.67
2023-05-22T04:18:49.623Z,69.43
2023-05-22T04:19:51.783Z,69.43
2023-05-22T04:20:53.930Z,69.00
2023-05-22T04:21:57.892Z,68.89
2023-05-22T04:23:00.061Z,68.53
2023-05-22T04:24:06.980Z,68.51
2023-05-22T04:25:09.925Z,67.36
2023-05-22T04:26:12.088Z,67.24
2023-05-22T04:27:14.245Z,66.48
2023-05-22T04:28:17.693Z,66.34
2023-05-22T04:29:22.370Z,66.10
2023-05-22T04:30:25.737Z,66.03
2023-05-22T04:31:28.422Z,66.10
2023-05-22T04:32:30.642Z,66.06
2023-05-22T04:33:34.517Z,65.98
2023-05-22T04:34:39.862Z,66.32
2023-05-22T04:35:42.395Z,66.10
2023-05-22T04:36:48.025Z,65.80
2023-05-22T04:37:50.280Z,65.78
2023-05-22T04:38:53.127Z,66.48
2023-05-22T04:39:58.223Z,66.49
2023-05-22T04:41:00.495Z,66.25
2023-05-22T04:42:05.923Z,66.34
2023-05-22T04:43:08.631Z,65.57
2023-05-22T04:44:10.806Z,65.30
2023-05-22T04:45:14.134Z,65.00
2023-05-22T04:46:16.387Z,64.89
2023-05-22T04:47:19.369Z,64.08
2023-05-22T04:48:21.522Z,63.72
2023-05-22T04:49:24.832Z,63.78
2023-05-22T04:50:27.018Z,63.14
2023-05-22T04:51:31.134Z,63.40
2023-05-22T04:52:33.303Z,62.97
2023-05-22T04:53:36.088Z,61.98
2023-05-22T04:54:43.386Z,62.14
2023-05-22T04:55:46.121Z,61.26
2023-05-22T04:56:48.252Z,61.09
2023-05-22T04:57:50.469Z,61.09
2023-05-22T04:58:53.928Z,61.12
2023-05-22T04:59:57.536Z,61.01
2023-05-22T05:00:59.836Z,60.76
2023-05-22T05:02:02.112Z,60.57
2023-05-22T05:03:04.435Z,61.24
2023-05-22T05:04:06.794Z,61.86
2023-05-22T05:05:09.282Z,62.65
2023-05-22T05:06:12.670Z,62.81
2023-05-22T05:07:17.630Z,62.27
2023-05-22T05:08:19.863Z,62.38
2023-05-22T05:09:22.084Z,61.09
2023-05-22T05:10:24.406Z,61.16
2023-05-22T05:11:26.645Z,60.64
2023-05-22T05:12:28.749Z,60.89
2023-05-22T05:13:30.968Z,61.19
2023-05-22T05:14:33.122Z,61.41
2023-05-22T05:15:35.229Z,62.27
2023-05-22T05:16:37.400Z,61.60
2023-05-22T05:17:39.614Z,61.36
2023-05-22T05:18:41.750Z,61.46
2023-05-22T05:19:44.367Z,62.11
2023-05-22T05:20:46.699Z,61.41
2023-05-22T05:21:52.408Z,61.29
2023-05-22T05:22:54.681Z,61.49
2023-05-22T05:23:56.859Z,60.54
2023-05-22T05:24:59.135Z,61.83
2023-05-22T05:26:01.549Z,61.06
2023-05-22T05:27:03.791Z,60.07
2023-05-22T05:28:11.656Z,62.24
2023-05-22T05:29:13.879Z,58.99
2023-05-22T05:30:17.573Z,59.06
2023-05-22T05:31:21.129Z,60.48
2023-05-22T05:32:23.404Z,59.14
2023-05-22T05:33:25.749Z,58.28
2023-05-22T05:34:27.866Z,58.55
2023-05-22T05:35:30.074Z,58.63
2023-05-22T05:36:32.468Z,57.79
2023-05-22T05:37:34.632Z,56.61
2023-05-22T05:38:36.910Z,56.03
2023-05-22T05:39:39.042Z,56.54
2023-05-22T05:40:41.960Z,55.97
2023-05-22T05:41:44.115Z,56.49
2023-05-22T05:42:46.222Z,56.59
2023-05-22T05:43:48.412Z,56.34
2023-05-22T05:44:50.510Z,56.61
2023-05-22T05:45:52.909Z,56.55
2023-05-22T05:46:55.118Z,56.79
2023-05-22T05:47:57.271Z,58.24
2023-05-22T05:48:59.529Z,58.31
2023-05-22T05:50:01.814Z,59.47
2023-05-22T05:51:05.109Z,59.69
2023-05-22T05:52:08.199Z,58.87
2023-05-22T05:53:10.494Z,58.59
2023-05-22T05:54:12.618Z,60.38
2023-05-22T05:55:14.900Z,59.59
2023-05-22T05:56:17.083Z,60.10
2023-05-22T05:57:19.254Z,60.23
2023-05-22T05:58:21.436Z,61.15
2023-05-22T05:59:24.435Z,59.66
2023-05-22T06:00:26.764Z,59.15
2023-05-22T06:01:31.239Z,58.03
2023-05-22T06:02:34.307Z,58.77
2023-05-22T06:03:36.745Z,59.53
2023-05-22T06:04:39.311Z,59.34
2023-05-22T06:05:41.455Z,59.05
2023-05-22T06:06:44.638Z,58.98
2023-05-22T06:07:48.332Z,59.17
2023-05-22T06:08:50.548Z,58.73
2023-05-22T06:09:52.754Z,56.90
2023-05-22T06:10:54.893Z,56.92
2023-05-22T06:11:57.042Z,56.68
2023-05-22T06:12:59.169Z,58.38
2023-05-22T06:14:03.113Z,59.85
2023-05-22T06:15:07.388Z,58.64
2023-05-22T06:16:10.108Z,58.22
2023-05-22T06:17:12.536Z,58.22
2023-05-22T06:18:15.143Z,59.18
2023-05-22T06:19:17.454Z,57.81
2023-05-22T06:20:19.761Z,57.01
2023-05-22T06:21:22.033Z,55.74
2023-05-22T06:22:26.441Z,55.55
2023-05-22T06:23:28.878Z,55.42
2023-05-22T06:24:32.542Z,56.76
2023-05-22T06:25:35.021Z,55.60
2023-05-22T06:26:37.471Z,56.46
2023-05-22T06:27:39.740Z,56.85
2023-05-22T06:28:41.917Z,56.13
2023-05-22T06:29:44.279Z,56.17
2023-05-22T06:30:46.579Z,57.36
2023-05-22T06:31:48.862Z,54.89
2023-05-22T06:32:52.505Z,56.23
2023-05-22T06:33:55.411Z,54.69
2023-05-22T06:34:57.727Z,54.14
2023-05-22T06:35:59.869Z,55.62
2023-05-22T06:37:03.767Z,56.17
2023-05-22T06:38:05.920Z,52.42
2023-05-22T06:39:08.781Z,51.87
2023-05-22T06:40:11.215Z,51.14
2023-05-22T06:41:13.401Z,50.74
2023-05-22T06:42:15.558Z,50.79
2023-05-22T06:43:18.629Z,50.67
2023-05-22T06:44:20.949Z,49.46
2023-05-22T06:45:23.094Z,47.96
2023-05-22T06:46:26.214Z,48.23
2023-05-22T06:47:28.638Z,47.46
2023-05-22T06:48:34.524Z,46.98
2023-05-22T06:49:36.733Z,45.18
2023-05-22T06:50:39.231Z,44.49
2023-05-22T06:51:41.445Z,44.36
2023-05-22T06:52:43.898Z,43.91
2023-05-22T06:53:46.319Z,44.20
2023-05-22T06:54:48.490Z,44.67
2023-05-22T06:55:51.162Z,45.20
2023-05-22T06:56:53.283Z,44.82
2023-05-22T06:57:55.410Z,45.17
2023-05-22T06:58:58.737Z,44.37
2023-05-22T07:00:01.187Z,43.92
2023-05-22T07:01:03.495Z,44.97
2023-05-22T07:02:06.520Z,44.64
2023-05-22T07:03:08.762Z,44.10
2023-05-22T07:04:13.305Z,44.15
2023-05-22T07:05:15.382Z,42.39
2023-05-22T07:06:18.385Z,41.74
2023-05-22T07:07:20.916Z,41.58
2023-05-22T07:08:23.695Z,41.27
2023-05-22T07:09:26.220Z,41.25
2023-05-22T07:10:28.518Z,41.26
2023-05-22T07:11:30.763Z,41.45
2023-05-22T07:12:32.879Z,42.43
2023-05-22T07:13:35.071Z,39.30
2023-05-22T07:14:37.205Z,39.23
2023-05-22T07:15:39.362Z,40.39
2023-05-22T07:16:41.707Z,39.29
2023-05-22T07:17:44.063Z,41.04
2023-05-22T07:18:46.381Z,42.33
2023-05-22T07:19:49.126Z,40.87
2023-05-22T07:20:51.465Z,42.13
2023-05-22T07:21:53.983Z,39.89
2023-05-22T07:22:58.924Z,39.42
2023-05-22T07:24:03.497Z,38.88
2023-05-22T07:25:06.608Z,39.89
2023-05-22T07:26:09.841Z,39.85
2023-05-22T07:27:12.411Z,40.48
2023-05-22T07:28:14.577Z,41.27
2023-05-22T07:29:17.022Z,39.42
2023-05-22T07:30:19.147Z,38.99
2023-05-22T07:31:21.280Z,39.02
2023-05-22T07:32:23.515Z,39.95
2023-05-22T07:33:25.990Z,41.21
2023-05-22T07:34:34.152Z,41.89
2023-05-22T07:35:36.320Z,42.54
2023-05-22T07:36:38.769Z,41.89
2023-05-22T07:37:41.405Z,41.38
2023-05-22T07:38:43.585Z,41.16
2023-05-22T07:39:46.833Z,40.97
2023-05-22T07:40:49.059Z,42.65
2023-05-22T07:41:51.341Z,42.88
2023-05-22T07:42:53.557Z,42.48
2023-05-22T07:43:55.816Z,40.91
2023-05-22T07:44:58.009Z,41.90
2023-05-22T07:46:00.250Z,42.32
2023-05-22T07:47:02.562Z,43.10
2023-05-22T07:48:04.934Z,42.11
2023-05-22T07:49:07.155Z,42.84
2023-05-22T07:50:09.507Z,41.19
2023-05-22T07:51:13.706Z,40.64
2023-05-22T07:52:16.072Z,40.33
2023-05-22T07:53:18.248Z,40.59
2023-05-22T07:54:20.484Z,42.26
2023-05-22T07:55:22.732Z,41.09
2023-05-22T07:56:25.882Z,41.32
2023-05-22T07:57:29.795Z,41.14
2023-05-22T07:58:32.285Z,40.29
2023-05-22T07:59:35.824Z,38.88
2023-05-22T08:00:37.988Z,39.15
2023-05-22T08:01:42.050Z,38.93
2023-05-22T08:02:45.078Z,38.93
2023-05-22T08:03:47.634Z,38.19
2023-05-22T08:04:50.507Z,39.60
2023-05-22T08:05:52.758Z,38.18
2023-05-22T08:06:54.880Z,38.52
2023-05-22T08:07:57.030Z,38.75
2023-05-22T08:09:00.167Z,38.53
2023-05-22T08:10:08.786Z,39.11
2023-05-22T08:11:11.188Z,38.38
2023-05-22T08:12:13.503Z,38.54
2023-05-22T08:13:18.058Z,39.03
2023-05-22T08:14:21.747Z,39.83
2023-05-22T08:15:24.005Z,39.01
2023-05-22T08:16:26.216Z,38.87
2023-05-22T08:17:28.477Z,38.95
2023-05-22T08:18:30.768Z,39.97
2023-05-22T08:19:33.169Z,40.24
2023-05-22T08:20:35.529Z,40.46
2023-05-22T08:21:37.907Z,38.26
2023-05-22T08:22:40.710Z,41.34
2023-05-22T08:23:42.904Z,39.60
2023-05-22T08:24:45.044Z,38.31
2023-05-22T08:25:47.154Z,35.94
2023-05-22T08:26:49.310Z,36.24
2023-05-22T08:27:52.085Z,35.36
2023-05-22T08:28:54.276Z,35.70
2023-05-22T08:29:56.614Z,37.16
2023-05-22T08:30:58.766Z,37.07
2023-05-22T08:32:00.955Z,37.70
2023-05-22T08:33:03.253Z,39.49
2023-05-22T08:34:06.485Z,37.34
2023-05-22T08:35:08.995Z,37.31
2023-05-22T08:36:11.430Z,37.56
2023-05-22T08:37:15.119Z,36.88
2023-05-22T08:38:17.771Z,36.81
2023-05-22T08:39:20.039Z,36.88
2023-05-22T08:40:22.368Z,37.32
2023-05-22T08:41:24.552Z,36.82
2023-05-22T08:42:26.701Z,38.86
2023-05-22T08:43:29.377Z,37.54
2023-05-22T08:44:31.553Z,38.17
2023-05-22T08:45:34.477Z,37.75
2023-05-22T08:46:41.651Z,37.31
2023-05-22T08:47:44.731Z,37.73
2023-05-22T08:48:47.870Z,37.17
2023-05-22T08:49:51.986Z,38.06
2023-05-22T08:50:58.277Z,37.72
2023-05-22T08:52:05.416Z,37.74
2023-05-22T08:53:08.468Z,37.97
2023-05-22T08:54:10.886Z,38.34
2023-05-22T08:55:13.135Z,37.22
2023-05-22T08:56:15.403Z,37.46
2023-05-22T08:57:18.151Z,38.63
2023-05-22T08:58:21.312Z,38.98
2023-05-22T08:59:23.443Z,38.60
2023-05-22T09:00:25.651Z,39.32
2023-05-22T09:01:31.209Z,39.25
2023-05-22T09:02:33.429Z,38.30
2023-05-22T09:03:36.951Z,38.87
2023-05-22T09:04:42.156Z,37.97
2023-05-22T09:05:45.446Z,38.12
2023-05-22T09:06:47.634Z,37.52
2023-05-22T09:07:50.045Z,36.81
2023-05-22T09:08:53.344Z,37.68
2023-05-22T09:09:56.308Z,37.01
2023-05-22T09:10:58.510Z,35.42
2023-05-22T09:12:01.300Z,35.25
2023-05-22T09:13:07.922Z,35.25
2023-05-22T09:14:10.657Z,34.87
2023-05-22T09:15:13.827Z,35.50
2023-05-22T09:16:16.085Z,34.98
2023-05-22T09:17:18.680Z,35.45
2023-05-22T09:18:22.112Z,34.08
2023-05-22T09:19:24.380Z,32.06
2023-05-22T09:20:26.816Z,31.65
2023-05-22T09:21:30.715Z,30.98
2023-05-22T09:22:40.017Z,31.44
2023-05-22T09:23:42.232Z,31.45
2023-05-22T09:24:45.808Z,30.87
2023-05-22T09:25:47.941Z,30.91
2023-05-22T09:26:52.564Z,29.39
2023-05-22T09:27:54.765Z,29.96
2023-05-22T09:28:59.418Z,30.65
2023-05-22T09:30:01.780Z,29.83
2023-05-22T09:31:04.684Z,29.12
2023-05-22T09:32:13.795Z,28.23
2023-05-22T09:33:17.060Z,28.47
2023-05-22T09:34:19.217Z,28.87
2023-05-22T09:35:21.983Z,30.14
2023-05-22T09:36:32.397Z,31.44
2023-05-22T09:37:35.863Z,32.58
2023-05-22T09:38:38.330Z,33.13
2023-05-22T09:39:44.901Z,33.34
2023-05-22T09:40:47.152Z,33.89
2023-05-22T09:41:50.811Z,32.97
2023-05-22T09:42:52.975Z,32.69
2023-05-22T09:43:55.110Z,32.76
2023-05-22T09:44:57.280Z,32.83
2023-05-22T09:46:06.216Z,33.79
2023-05-22T09:47:09.783Z,33.22
2023-05-22T09:48:12.762Z,34.13
2023-05-22T09:49:16.716Z,34.29
2023-05-22T09:50:19.409Z,34.69
2023-05-22T09:51:23.909Z,33.99
2023-05-22T09:52:28.952Z,32.83
2023-05-22T09:53:33.136Z,31.95
2023-05-22T09:54:35.991Z,31.23
2023-05-22T09:55:38.466Z,30.73
2023-05-22T09:56:41.590Z,30.32
2023-05-22T09:57:45.178Z,29.59
2023-05-22T09:58:47.878Z,28.92
2023-05-22T09:59:55.060Z,31.09
2023-05-22T10:00:57.696Z,30.87
2023-05-22T10:02:02.208Z,29.56
2023-05-22T10:03:15.997Z,29.33
2023-05-22T10:04:18.761Z,27.59
2023-05-22T10:05:24.134Z,28.17
2023-05-22T10:06:27.442Z,28.11
2023-05-22T10:07:33.189Z,29.32
2023-05-22T10:08:59.340Z,28.85
2023-05-22T10:10:08.927Z,28.31
2023-05-22T10:11:11.818Z,30.21
2023-05-22T10:12:16.411Z,30.80
2023-05-22T10:13:19.050Z,31.42
2023-05-22T10:14:22.063Z,29.26
2023-05-22T10:15:24.911Z,29.86
2023-05-22T10:16:27.735Z,29.86
2023-05-22T10:17:29.874Z,29.44
2023-05-22T10:18:32.173Z,29.67
2023-05-22T10:19:38.604Z,28.49
2023-05-22T10:20:42.639Z,28.05
2023-05-22T10:21:45.717Z,27.71
2023-05-22T10:22:51.349Z,28.63
2023-05-22T10:23:54.579Z,27.06
2023-05-22T10:24:57.919Z,26.90
2023-05-22T10:26:00.129Z,26.38
2023-05-22T10:27:02.408Z,25.67
2023-05-22T10:28:05.937Z,26.08
2023-05-22T10:29:12.877Z,27.02
2023-05-22T10:30:40.816Z,26.87
2023-05-22T10:31:48.261Z,27.30
2023-05-22T10:33:16.768Z,25.57
2023-05-22T10:34:26.934Z,26.33
2023-05-22T10:35:46.569Z,27.65
2023-05-22T10:36:51.380Z,26.17
2023-05-22T10:37:55.614Z,25.55
2023-05-22T10:39:23.786Z,25.22
2023-05-22T10:40:30.592Z,23.71
2023-05-22T10:41:33.747Z,23.49
2023-05-22T10:42:37.725Z,24.22
2023-05-22T10:43:45.386Z,24.95
2023-05-22T10:44:48.720Z,25.54
2023-05-22T10:46:02.367Z,24.85
2023-05-22T10:47:11.327Z,24.20
2023-05-22T10:48:13.849Z,23.54
2023-05-22T10:49:22.447Z,25.24
2023-05-22T10:50:24.698Z,24.33
2023-05-22T10:51:26.917Z,23.99
2023-05-22T10:52:29.172Z,24.80
2023-05-22T10:53:32.369Z,26.26
2023-05-22T10:54:43.877Z,25.92
2023-05-22T10:55:53.638Z,26.60
2023-05-22T10:57:16.661Z,25.45
2023-05-22T10:58:37.414Z,25.96
2023-05-22T10:59:40.300Z,25.69
2023-05-22T11:00:42.870Z,25.39
2023-05-22T11:01:45.118Z,24.62
2023-05-22T11:02:47.459Z,24.79
2023-05-22T11:03:55.612Z,23.92
2023-05-22T11:05:20.021Z,23.86
2023-05-22T11:06:38.213Z,25.44
2023-05-22T11:07:41.456Z,25.63
2023-05-22T11:08:43.615Z,22.71
2023-05-22T11:09:48.133Z,22.30
2023-05-22T11:10:54.462Z,22.10
2023-05-22T11:12:18.353Z,23.24
2023-05-22T11:13:20.540Z,24.46
2023-05-22T11:14:25.923Z,24.00
2023-05-22T11:15:32.115Z,22.96
2023-05-22T11:16:34.635Z,22.52
2023-05-22T11:17:39.729Z,21.70
2023-05-22T11:18:45.149Z,21.64
2023-05-22T11:19:59.535Z,23.85
2023-05-22T11:21:01.897Z,24.52
2023-05-22T11:22:05.044Z,23.48
2023-05-22T11:23:07.968Z,23.25
2023-05-22T11:24:10.599Z,23.59
2023-05-22T11:25:17.944Z,22.59
2023-05-22T11:26:26.352Z,21.80
2023-05-22T11:27:32.702Z,22.89
2023-05-22T11:28:34.893Z,22.77
2023-05-22T11:29:38.454Z,22.71
2023-05-22T11:30:41.378Z,21.50
2023-05-22T11:31:44.061Z,23.51
2023-05-22T11:32:48.160Z,21.19
2023-05-22T11:33:50.704Z,22.49
2023-05-22T11:34:53.125Z,21.67
2023-05-22T11:35:55.422Z,22.71
2023-05-22T11:36:59.814Z,22.98
2023-05-22T11:38:04.842Z,23.18
2023-05-22T11:39:07.378Z,23.62
2023-05-22T11:40:10.257Z,23.76
2023-05-22T11:41:13.004Z,23.04
2023-05-22T11:42:15.254Z,21.67
2023-05-22T11:43:29.871Z,21.47
2023-05-22T11:44:32.041Z,21.38
2023-05-22T11:45:37.728Z,21.37
2023-05-22T11:46:40.385Z,22.52
2023-05-22T11:47:43.648Z,22.59
2023-05-22T11:48:47.682Z,20.39
2023-05-22T11:49:49.885Z,20.58
2023-05-22T11:50:52.028Z,20.92
2023-05-22T11:51:54.308Z,21.92
2023-05-22T11:52:56.617Z,21.71
2023-05-22T11:53:58.955Z,21.51
2023-05-22T11:55:01.432Z,21.00
2023-05-22T11:56:05.291Z,21.50
2023-05-22T11:57:08.618Z,21.70
2023-05-22T11:58:10.782Z,22.47
2023-05-22T11:59:12.997Z,21.08
2023-05-22T12:00:15.917Z,22.14
2023-05-22T12:01:18.084Z,21.10
2023-05-22T12:02:21.024Z,20.00
2023-05-22T12:03:25.208Z,19.64
2023-05-22T12:04:28.066Z,20.47
2023-05-22T12:05:32.387Z,21.42
2023-05-22T12:06:34.735Z,21.77
2023-05-22T12:07:37.068Z,21.02
2023-05-22T12:08:39.296Z,20.29
2023-05-22T12:09:42.668Z,20.58
2023-05-22T12:10:49.235Z,18.66
2023-05-22T12:11:51.453Z,20.86
2023-05-22T12:12:54.680Z,21.37
2023-05-22T12:14:05.772Z,21.75
2023-05-22T12:15:08.480Z,20.94
2023-05-22T12:16:23.953Z,21.99
2023-05-22T12:17:28.712Z,22.02
2023-05-22T12:18:37.561Z,21.26
2023-05-22T12:19:40.423Z,21.52
2023-05-22T12:20:43.823Z,21.52
2023-05-22T12:21:45.978Z,21.42
2023-05-22T12:22:49.418Z,21.76
2023-05-22T12:23:51.846Z,22.49
2023-05-22T12:24:54.998Z,23.04
2023-05-22T12:25:58.880Z,22.12
2023-05-22T12:27:01.340Z,22.45
2023-05-22T12:28:03.519Z,22.85
2023-05-22T12:29:05.773Z,22.76
2023-05-22T12:30:12.447Z,22.93
2023-05-22T12:31:24.130Z,22.89
2023-05-22T12:32:29.750Z,23.46
2023-05-22T12:33:32.158Z,22.81
2023-05-22T12:34:35.579Z,21.65
2023-05-22T12:35:38.554Z,22.67
2023-05-22T12:36:42.557Z,22.32
2023-05-22T12:37:49.259Z,22.02
2023-05-22T12:38:55.458Z,22.28
2023-05-22T12:39:58.826Z,22.98
2023-05-22T12:41:00.980Z,23.29
2023-05-22T12:42:03.170Z,23.25
2023-05-22T12:43:05.425Z,22.45
2023-05-22T12:44:07.628Z,21.89
2023-05-22T12:45:10.463Z,21.77
2023-05-22T12:46:12.630Z,21.19
2023-05-22T12:47:14.791Z,21.18
2023-05-22T12:48:17.324Z,21.35
2023-05-22T12:49:19.465Z,20.46
2023-05-22T12:50:21.598Z,21.00
2023-05-22T12:51:27.038Z,21.58
2023-05-22T12:52:29.192Z,21.64
2023-05-22T12:53:31.588Z,21.84
2023-05-22T12:54:33.739Z,23.06
2023-05-22T12:55:36.160Z,21.49
2023-05-22T12:56:38.298Z,20.97
2023-05-22T12:57:40.400Z,20.08
2023-05-22T12:58:43.752Z,19.72
2023-05-22T12:59:45.969Z,21.33
2023-05-22T13:00:48.147Z,21.78
2023-05-22T13:01:50.443Z,20.97
2023-05-22T13:02:52.892Z,20.02
2023-05-22T13:03:55.182Z,20.43
2023-05-22T13:04:57.421Z,20.80
2023-05-22T13:06:00.313Z,21.33
2023-05-22T13:07:02.622Z,20.84
2023-05-22T13:08:04.927Z,20.81
2023-05-22T13:09:07.082Z,21.47
2023-05-22T13:10:10.766Z,21.08
2023-05-22T13:11:31.689Z,21.14
2023-05-22T13:12:34.031Z,21.39
2023-05-22T13:13:36.307Z,20.84
2023-05-22T13:14:40.534Z,20.25
2023-05-22T13:15:43.189Z,20.08
2023-05-22T13:16:45.340Z,19.91
2023-05-22T13:17:47.547Z,19.92
2023-05-22T13:18:49.751Z,19.35
2023-05-22T13:19:52.223Z,19.79
2023-05-22T13:20:56.396Z,19.73
2023-05-22T13:21:58.623Z,20.01
2023-05-22T13:23:00.981Z,20.71
2023-05-22T13:24:04.409Z,20.63
2023-05-22T13:25:06.803Z,20.58
2023-05-22T13:26:09.081Z,19.63
2023-05-22T13:27:11.254Z,19.65
2023-05-22T13:28:13.396Z,20.79
2023-05-22T13:29:15.723Z,20.75
2023-05-22T13:30:17.969Z,20.63
2023-05-22T13:31:20.151Z,19.94
2023-05-22T13:32:22.559Z,19.74
2023-05-22T13:33:25.846Z,20.54
2023-05-22T13:34:28.784Z,19.49
2023-05-22T13:35:31.145Z,20.04
2023-05-22T13:36:33.847Z,20.00
2023-05-22T13:37:36.131Z,19.78
2023-05-22T13:38:38.285Z,19.49
2023-05-22T13:39:41.049Z,19.46
2023-05-22T13:40:43.200Z,18.87
2023-05-22T13:41:45.432Z,20.62
2023-05-22T13:42:47.626Z,18.68
2023-05-22T13:43:49.783Z,18.28